EST,Max TemperatureF,Mean TemperatureF,Min TemperatureF,Max Dew PointF,MeanDew PointF,Min DewpointF,Max Humidity, Mean Humidity, Min Humidity, Max Sea Level PressureIn, Mean Sea Level PressureIn, Min Sea Level PressureIn, Max VisibilityMiles, Mean VisibilityMiles, Min VisibilityMiles, Max Wind SpeedMPH, Mean Wind SpeedMPH, Max Gust SpeedMPH,PrecipitationIn, CloudCover, Events, WindDirDegrees
2012-12-1,61,46,31,48,38,31,100,80,44,30.43,30.38,30.34,10,7,0,0,0,,0.00,1,Fog,-1
2012-12-2,63,48,34,50,43,34,99,82,54,30.43,30.34,30.26,10,8,2,9,0,,0.00,0,,173
2012-12-3,70,60,50,58,54,48,99,84,57,30.29,30.26,30.22,10,9,1,0,0,,0.00,3,,-1
2012-12-4,73,59,45,59,54,45,100,85,50,30.33,30.25,30.19,10,8,0,9,0,16,0.00,1,Fog,222
2012-12-5,68,54,40,60,53,40,100,89,72,30.22,30.16,30.11,10,10,10,14,2,21,0.00,4,Rain,324
2012-12-6,51,43,35,44,36,34,96,77,58,30.35,30.28,30.23,10,10,7,12,3,,0.00,0,,48
2012-12-7,63,50,36,62,51,35,100,92,77,30.24,30.11,29.99,10,10,5,9,0,,0.00,7,,100
2012-12-8,63,57,51,62,58,51,100,96,81,30.06,29.99,29.95,10,6,0,0,0,,0.00,4,Fog,-1
2012-12-9,71,58,46,61,56,47,100,90,64,30.16,30.10,30.03,10,7,0,9,0,,0.00,3,Fog-Rain,167
2012-12-10,70,64,59,69,63,59,100,95,76,30.02,29.82,29.73,10,9,3,14,3,18,0.04,3,Rain,207
2012-12-11,67,58,49,64,53,42,100,86,75,30.16,29.94,29.75,10,10,1,10,3,16,0.00,5,,38
2012-12-12,49,46,42,46,43,37,100,91,73,30.32,30.25,30.15,10,9,4,14,5,22,0.29,8,Rain,22
2012-12-13,53,44,37,48,42,36,100,92,73,30.34,30.29,30.23,10,9,5,15,9,22,0.36,5,Rain,14
2012-12-14,55,44,32,43,36,28,100,85,34,30.36,30.30,30.24,10,9,5,9,1,,0.00,0,,180
2012-12-15,54,42,31,50,41,31,100,93,71,30.30,30.22,30.11,10,9,0,8,0,,0.00,3,Fog,90
2012-12-16,57,53,49,57,53,50,100,100,97,30.10,30.01,29.90,10,6,1,0,0,,0.39,8,Rain,-1
2012-12-17,62,58,55,61,58,55,100,98,90,29.91,29.80,29.64,10,7,0,16,2,22,0.16,6,Rain,189
2012-12-18,64,56,47,59,50,37,100,80,55,29.89,29.71,29.63,10,10,10,14,4,20,0.10,3,Rain,272
2012-12-19,62,50,39,41,38,35,96,67,37,30.17,30.00,29.88,10,10,7,10,1,17,0.00,0,,276
2012-12-20,63,48,33,59,45,33,100,85,63,30.20,30.02,29.55,10,9,4,23,3,29,0.04,2,Rain,132
2012-12-21,62,50,39,63,35,23,100,62,44,29.74,29.57,29.42,10,9,2,26,18,34,1.02,5,Rain,266
2012-12-22,49,40,32,29,25,22,85,53,36,30.07,29.92,29.74,10,10,10,21,11,31,0.00,0,,291
2012-12-23,53,41,29,34,27,19,88,59,29,30.17,30.08,30.03,10,10,10,0,0,,0.00,0,,-1
2012-12-24,57,50,44,45,40,32,83,66,55,30.07,29.99,29.93,10,10,10,0,0,,0.00,5,Rain,-1
2012-12-25,55,48,40,48,44,40,99,82,64,30.17,30.06,29.93,10,10,7,8,0,,0.00,2,,105
2012-12-26,63,54,45,64,52,42,100,94,81,30.12,29.72,29.39,10,8,1,18,9,28,1.75,7,Rain,97
2012-12-27,50,44,38,43,34,29,85,65,49,30.05,29.82,29.56,10,10,10,18,11,26,0.00,1,,291
2012-12-28,44,37,30,37,31,27,91,76,58,30.19,30.11,30.05,10,10,10,0,0,,0.00,1,,-1
2012-12-29,50,44,39,50,42,32,100,88,64,30.06,29.77,29.59,10,8,2,15,2,24,0.90,5,Rain,307
2012-12-30,46,41,34,32,25,20,72,54,36,30.38,30.22,29.85,10,10,10,18,6,28,0.00,0,,315
2012-12-31,49,38,28,36,28,24,86,62,44,30.38,30.27,30.12,10,10,10,8,0,,0.00,1,,220